sensor_id;sensor_type;location;lat;lon;timestamp;P1;durP1;ratioP1;P2;durP2;ratioP2
11064;SDS011;5585;52.530;7.320;2024-01-25T00:01:48;21.47;;;4.97;;
11064;SDS011;5585;52.530;7.320;2024-01-25T00:04:15;19.23;;;4.13;;
11064;SDS011;5585;52.530;7.320;2024-01-25T00:06:42;20.50;;;4.37;;
11064;SDS011;5585;52.530;7.320;2024-01-25T00:09:08;19.53;;;4.43;;
11064;SDS011;5585;52.530;7.320;2024-01-25T00:11:35;21.00;;;4.20;;
11064;SDS011;5585;52.530;7.320;2024-01-25T00:14:01;18.60;;;4.10;;
11064;SDS011;5585;52.530;7.320;2024-01-25T00:16:28;17.33;;;4.03;;
11064;SDS011;5585;52.530;7.320;2024-01-25T00:18:54;21.00;;;4.47;;
11064;SDS011;5585;52.530;7.320;2024-01-25T00:21:22;19.80;;;4.50;;
11064;SDS011;5585;52.530;7.320;2024-01-25T00:23:48;23.03;;;4.67;;
11064;SDS011;5585;52.530;7.320;2024-01-25T00:26:15;24.23;;;4.87;;
11064;SDS011;5585;52.530;7.320;2024-01-25T00:28:41;18.60;;;4.33;;
11064;SDS011;5585;52.530;7.320;2024-01-25T00:31:08;19.47;;;3.87;;
11064;SDS011;5585;52.530;7.320;2024-01-25T00:33:34;18.47;;;4.30;;
11064;SDS011;5585;52.530;7.320;2024-01-25T00:36:01;16.90;;;3.73;;
11064;SDS011;5585;52.530;7.320;2024-01-25T00:38:29;17.90;;;4.40;;
11064;SDS011;5585;52.530;7.320;2024-01-25T00:40:55;23.27;;;4.20;;
11064;SDS011;5585;52.530;7.320;2024-01-25T00:43:22;16.40;;;3.80;;
11064;SDS011;5585;52.530;7.320;2024-01-25T00:45:49;15.70;;;4.20;;
11064;SDS011;5585;52.530;7.320;2024-01-25T00:48:16;18.83;;;4.00;;
11064;SDS011;5585;52.530;7.320;2024-01-25T00:50:42;19.27;;;3.83;;
11064;SDS011;5585;52.530;7.320;2024-01-25T00:53:09;21.27;;;4.63;;
11064;SDS011;5585;52.530;7.320;2024-01-25T00:55:37;21.30;;;4.33;;
11064;SDS011;5585;52.530;7.320;2024-01-25T00:58:04;19.10;;;4.40;;
11064;SDS011;5585;52.530;7.320;2024-01-25T01:00:31;20.23;;;4.07;;
11064;SDS011;5585;52.530;7.320;2024-01-25T01:02:58;21.57;;;4.70;;
11064;SDS011;5585;52.530;7.320;2024-01-25T01:05:28;18.30;;;4.20;;
11064;SDS011;5585;52.530;7.320;2024-01-25T01:07:54;16.70;;;4.40;;
11064;SDS011;5585;52.530;7.320;2024-01-25T01:10:21;18.57;;;3.57;;
11064;SDS011;5585;52.530;7.320;2024-01-25T01:12:49;20.77;;;5.13;;
11064;SDS011;5585;52.530;7.320;2024-01-25T01:15:17;20.57;;;4.10;;
11064;SDS011;5585;52.530;7.320;2024-01-25T01:17:43;16.80;;;4.37;;
11064;SDS011;5585;52.530;7.320;2024-01-25T01:20:10;17.60;;;4.10;;
11064;SDS011;5585;52.530;7.320;2024-01-25T01:22:37;14.57;;;3.80;;
11064;SDS011;5585;52.530;7.320;2024-01-25T01:25:03;15.93;;;4.00;;
11064;SDS011;5585;52.530;7.320;2024-01-25T01:27:30;18.23;;;4.10;;
11064;SDS011;5585;52.530;7.320;2024-01-25T01:29:58;17.53;;;3.70;;
11064;SDS011;5585;52.530;7.320;2024-01-25T01:32:24;23.33;;;4.20;;
11064;SDS011;5585;52.530;7.320;2024-01-25T01:34:50;18.47;;;4.07;;
11064;SDS011;5585;52.530;7.320;2024-01-25T01:37:17;20.40;;;4.93;;
11064;SDS011;5585;52.530;7.320;2024-01-25T01:39:43;20.60;;;4.10;;
11064;SDS011;5585;52.530;7.320;2024-01-25T01:42:10;18.50;;;3.93;;
11064;SDS011;5585;52.530;7.320;2024-01-25T01:44:36;15.03;;;4.00;;
11064;SDS011;5585;52.530;7.320;2024-01-25T01:47:04;19.40;;;4.00;;
11064;SDS011;5585;52.530;7.320;2024-01-25T01:49:30;18.80;;;4.10;;
11064;SDS011;5585;52.530;7.320;2024-01-25T01:51:57;14.23;;;3.30;;
11064;SDS011;5585;52.530;7.320;2024-01-25T01:54:24;18.07;;;3.93;;
11064;SDS011;5585;52.530;7.320;2024-01-25T01:56:50;19.17;;;4.30;;
11064;SDS011;5585;52.530;7.320;2024-01-25T01:59:17;18.47;;;4.27;;
11064;SDS011;5585;52.530;7.320;2024-01-25T02:01:44;16.17;;;3.90;;
11064;SDS011;5585;52.530;7.320;2024-01-25T02:04:12;25.40;;;4.90;;
11064;SDS011;5585;52.530;7.320;2024-01-25T02:06:38;17.37;;;4.10;;
11064;SDS011;5585;52.530;7.320;2024-01-25T02:09:05;23.30;;;4.17;;
11064;SDS011;5585;52.530;7.320;2024-01-25T02:11:31;15.90;;;3.70;;
11064;SDS011;5585;52.530;7.320;2024-01-25T02:13:57;18.20;;;4.77;;
11064;SDS011;5585;52.530;7.320;2024-01-25T02:16:24;22.00;;;4.00;;
11064;SDS011;5585;52.530;7.320;2024-01-25T02:18:50;19.23;;;4.40;;
11064;SDS011;5585;52.530;7.320;2024-01-25T02:21:20;21.93;;;4.93;;
11064;SDS011;5585;52.530;7.320;2024-01-25T02:23:49;18.57;;;4.27;;
11064;SDS011;5585;52.530;7.320;2024-01-25T02:26:16;20.00;;;4.17;;
11064;SDS011;5585;52.530;7.320;2024-01-25T02:28:42;19.37;;;4.33;;
11064;SDS011;5585;52.530;7.320;2024-01-25T02:31:08;15.10;;;3.87;;
11064;SDS011;5585;52.530;7.320;2024-01-25T02:33:35;22.30;;;4.63;;
11064;SDS011;5585;52.530;7.320;2024-01-25T02:36:01;15.50;;;4.57;;
11064;SDS011;5585;52.530;7.320;2024-01-25T02:38:28;21.70;;;4.93;;
11064;SDS011;5585;52.530;7.320;2024-01-25T02:40:55;19.87;;;4.07;;
11064;SDS011;5585;52.530;7.320;2024-01-25T02:43:22;17.47;;;4.23;;
11064;SDS011;5585;52.530;7.320;2024-01-25T02:45:48;15.90;;;3.57;;
11064;SDS011;5585;52.530;7.320;2024-01-25T02:48:15;20.00;;;4.33;;
11064;SDS011;5585;52.530;7.320;2024-01-25T02:50:41;21.03;;;4.80;;
11064;SDS011;5585;52.530;7.320;2024-01-25T02:53:08;18.83;;;3.80;;
11064;SDS011;5585;52.530;7.320;2024-01-25T02:55:34;20.43;;;4.93;;
11064;SDS011;5585;52.530;7.320;2024-01-25T02:58:02;19.60;;;4.57;;
11064;SDS011;5585;52.530;7.320;2024-01-25T03:00:28;19.87;;;4.93;;
11064;SDS011;5585;52.530;7.320;2024-01-25T03:02:55;23.20;;;4.93;;
11064;SDS011;5585;52.530;7.320;2024-01-25T03:05:21;19.80;;;4.57;;
11064;SDS011;5585;52.530;7.320;2024-01-25T03:07:47;23.60;;;4.37;;
11064;SDS011;5585;52.530;7.320;2024-01-25T03:10:14;21.30;;;4.63;;
11064;SDS011;5585;52.530;7.320;2024-01-25T03:12:40;18.97;;;4.17;;
11064;SDS011;5585;52.530;7.320;2024-01-25T03:15:08;15.80;;;3.67;;
11064;SDS011;5585;52.530;7.320;2024-01-25T03:17:35;18.77;;;4.47;;
11064;SDS011;5585;52.530;7.320;2024-01-25T03:20:01;23.43;;;4.43;;
11064;SDS011;5585;52.530;7.320;2024-01-25T03:22:28;20.43;;;3.77;;
11064;SDS011;5585;52.530;7.320;2024-01-25T03:24:55;18.63;;;4.57;;
11064;SDS011;5585;52.530;7.320;2024-01-25T03:27:21;20.07;;;4.60;;
11064;SDS011;5585;52.530;7.320;2024-01-25T03:29:48;18.17;;;4.17;;
11064;SDS011;5585;52.530;7.320;2024-01-25T03:32:16;20.00;;;4.83;;
11064;SDS011;5585;52.530;7.320;2024-01-25T03:34:42;19.60;;;4.80;;
11064;SDS011;5585;52.530;7.320;2024-01-25T03:37:09;20.40;;;4.37;;
11064;SDS011;5585;52.530;7.320;2024-01-25T03:39:35;17.87;;;4.20;;
11064;SDS011;5585;52.530;7.320;2024-01-25T03:42:02;21.03;;;4.50;;
11064;SDS011;5585;52.530;7.320;2024-01-25T03:44:28;16.97;;;4.50;;
11064;SDS011;5585;52.530;7.320;2024-01-25T03:46:55;21.77;;;4.00;;
11064;SDS011;5585;52.530;7.320;2024-01-25T03:49:23;20.03;;;4.03;;
11064;SDS011;5585;52.530;7.320;2024-01-25T03:51:49;21.40;;;4.60;;
11064;SDS011;5585;52.530;7.320;2024-01-25T03:54:16;18.30;;;4.40;;
11064;SDS011;5585;52.530;7.320;2024-01-25T03:56:42;21.20;;;4.17;;
11064;SDS011;5585;52.530;7.320;2024-01-25T03:59:09;20.00;;;4.77;;
11064;SDS011;5585;52.530;7.320;2024-01-25T04:01:42;19.63;;;5.23;;
11064;SDS011;5585;52.530;7.320;2024-01-25T04:04:09;16.97;;;3.77;;
11064;SDS011;5585;52.530;7.320;2024-01-25T04:06:38;23.53;;;5.10;;
11064;SDS011;5585;52.530;7.320;2024-01-25T04:09:04;13.97;;;3.60;;
11064;SDS011;5585;52.530;7.320;2024-01-25T04:11:31;22.33;;;5.07;;
11064;SDS011;5585;52.530;7.320;2024-01-25T04:13:57;20.90;;;4.70;;
11064;SDS011;5585;52.530;7.320;2024-01-25T04:16:24;20.40;;;4.40;;
11064;SDS011;5585;52.530;7.320;2024-01-25T04:18:50;22.97;;;4.80;;
11064;SDS011;5585;52.530;7.320;2024-01-25T04:21:17;17.97;;;4.30;;
11064;SDS011;5585;52.530;7.320;2024-01-25T04:23:45;20.83;;;4.43;;
11064;SDS011;5585;52.530;7.320;2024-01-25T04:26:11;15.90;;;4.03;;
11064;SDS011;5585;52.530;7.320;2024-01-25T04:28:37;18.13;;;4.40;;
11064;SDS011;5585;52.530;7.320;2024-01-25T04:31:04;14.83;;;3.57;;
11064;SDS011;5585;52.530;7.320;2024-01-25T04:33:30;18.40;;;4.20;;
11064;SDS011;5585;52.530;7.320;2024-01-25T04:35:57;12.97;;;3.90;;
11064;SDS011;5585;52.530;7.320;2024-01-25T04:38:23;19.03;;;4.40;;
11064;SDS011;5585;52.530;7.320;2024-01-25T04:40:51;18.83;;;4.27;;
11064;SDS011;5585;52.530;7.320;2024-01-25T04:43:17;16.23;;;4.00;;
11064;SDS011;5585;52.530;7.320;2024-01-25T04:45:44;16.03;;;3.83;;
11064;SDS011;5585;52.530;7.320;2024-01-25T04:48:10;19.60;;;4.07;;
11064;SDS011;5585;52.530;7.320;2024-01-25T04:50:37;23.03;;;4.47;;
11064;SDS011;5585;52.530;7.320;2024-01-25T04:53:04;19.53;;;4.20;;
11064;SDS011;5585;52.530;7.320;2024-01-25T04:55:30;16.93;;;4.00;;
11064;SDS011;5585;52.530;7.320;2024-01-25T04:57:58;13.27;;;3.13;;
11064;SDS011;5585;52.530;7.320;2024-01-25T05:00:25;12.33;;;3.20;;
11064;SDS011;5585;52.530;7.320;2024-01-25T05:02:51;16.63;;;3.53;;
11064;SDS011;5585;52.530;7.320;2024-01-25T05:05:18;16.07;;;4.57;;
11064;SDS011;5585;52.530;7.320;2024-01-25T05:07:44;16.53;;;3.83;;
11064;SDS011;5585;52.530;7.320;2024-01-25T05:10:11;14.97;;;5.13;;
11064;SDS011;5585;52.530;7.320;2024-01-25T05:12:36;20.20;;;4.20;;
11064;SDS011;5585;52.530;7.320;2024-01-25T05:15:05;15.97;;;4.60;;
11064;SDS011;5585;52.530;7.320;2024-01-25T05:17:31;20.37;;;4.60;;
11064;SDS011;5585;52.530;7.320;2024-01-25T05:19:58;14.07;;;3.83;;
11064;SDS011;5585;52.530;7.320;2024-01-25T05:22:24;17.67;;;4.60;;
11064;SDS011;5585;52.530;7.320;2024-01-25T05:24:51;21.00;;;4.57;;
11064;SDS011;5585;52.530;7.320;2024-01-25T05:27:17;14.20;;;3.73;;
11064;SDS011;5585;52.530;7.320;2024-01-25T05:29:43;10.80;;;3.27;;
11064;SDS011;5585;52.530;7.320;2024-01-25T05:32:11;14.43;;;3.70;;
11064;SDS011;5585;52.530;7.320;2024-01-25T05:34:38;17.93;;;4.20;;
11064;SDS011;5585;52.530;7.320;2024-01-25T05:37:04;16.37;;;4.00;;
11064;SDS011;5585;52.530;7.320;2024-01-25T05:39:31;18.40;;;3.63;;
11064;SDS011;5585;52.530;7.320;2024-01-25T05:41:58;17.17;;;3.87;;
11064;SDS011;5585;52.530;7.320;2024-01-25T05:44:24;14.73;;;3.80;;
11064;SDS011;5585;52.530;7.320;2024-01-25T05:46:51;14.07;;;4.30;;
11064;SDS011;5585;52.530;7.320;2024-01-25T05:49:19;18.93;;;4.43;;
11064;SDS011;5585;52.530;7.320;2024-01-25T05:51:45;17.33;;;4.80;;
11064;SDS011;5585;52.530;7.320;2024-01-25T05:54:11;18.67;;;3.87;;
11064;SDS011;5585;52.530;7.320;2024-01-25T05:56:38;16.93;;;3.53;;
11064;SDS011;5585;52.530;7.320;2024-01-25T05:59:04;17.30;;;4.03;;
11064;SDS011;5585;52.530;7.320;2024-01-25T06:01:31;16.50;;;3.97;;
11064;SDS011;5585;52.530;7.320;2024-01-25T06:03:57;21.60;;;4.67;;
11064;SDS011;5585;52.530;7.320;2024-01-25T06:06:25;17.27;;;4.10;;
11064;SDS011;5585;52.530;7.320;2024-01-25T06:08:51;19.23;;;4.50;;
11064;SDS011;5585;52.530;7.320;2024-01-25T06:11:18;13.50;;;3.70;;
11064;SDS011;5585;52.530;7.320;2024-01-25T06:13:44;15.90;;;3.60;;
11064;SDS011;5585;52.530;7.320;2024-01-25T06:16:11;13.10;;;3.90;;
11064;SDS011;5585;52.530;7.320;2024-01-25T06:18:37;16.07;;;3.73;;
11064;SDS011;5585;52.530;7.320;2024-01-25T06:21:04;17.90;;;4.30;;
11064;SDS011;5585;52.530;7.320;2024-01-25T06:23:31;18.33;;;4.70;;
11064;SDS011;5585;52.530;7.320;2024-01-25T06:25:58;19.07;;;4.27;;
11064;SDS011;5585;52.530;7.320;2024-01-25T06:28:26;19.40;;;4.07;;
11064;SDS011;5585;52.530;7.320;2024-01-25T06:30:52;14.40;;;4.23;;
11064;SDS011;5585;52.530;7.320;2024-01-25T06:33:18;14.87;;;3.93;;
11064;SDS011;5585;52.530;7.320;2024-01-25T06:35:45;11.73;;;3.90;;
11064;SDS011;5585;52.530;7.320;2024-01-25T06:38:12;17.00;;;4.63;;
11064;SDS011;5585;52.530;7.320;2024-01-25T06:40:39;16.03;;;4.50;;
11064;SDS011;5585;52.530;7.320;2024-01-25T06:43:06;20.97;;;5.03;;
11064;SDS011;5585;52.530;7.320;2024-01-25T06:45:32;17.10;;;4.23;;
11064;SDS011;5585;52.530;7.320;2024-01-25T06:47:59;15.53;;;3.77;;
11064;SDS011;5585;52.530;7.320;2024-01-25T06:50:25;19.77;;;5.83;;
11064;SDS011;5585;52.530;7.320;2024-01-25T06:52:52;19.60;;;5.37;;
11064;SDS011;5585;52.530;7.320;2024-01-25T06:55:19;16.57;;;4.77;;
11064;SDS011;5585;52.530;7.320;2024-01-25T06:57:46;15.47;;;4.50;;
11064;SDS011;5585;52.530;7.320;2024-01-25T07:00:13;14.30;;;3.80;;
11064;SDS011;5585;52.530;7.320;2024-01-25T07:02:41;20.50;;;4.70;;
11064;SDS011;5585;52.530;7.320;2024-01-25T07:05:07;12.83;;;3.70;;
11064;SDS011;5585;52.530;7.320;2024-01-25T07:07:34;14.43;;;3.93;;
11064;SDS011;5585;52.530;7.320;2024-01-25T07:10:03;12.43;;;3.90;;
11064;SDS011;5585;52.530;7.320;2024-01-25T07:12:30;14.60;;;3.73;;
11064;SDS011;5585;52.530;7.320;2024-01-25T07:14:58;18.00;;;4.33;;
11064;SDS011;5585;52.530;7.320;2024-01-25T07:17:24;17.30;;;4.63;;
11064;SDS011;5585;52.530;7.320;2024-01-25T07:19:50;16.17;;;4.10;;
11064;SDS011;5585;52.530;7.320;2024-01-25T07:22:17;15.27;;;4.03;;
11064;SDS011;5585;52.530;7.320;2024-01-25T07:24:43;21.07;;;4.77;;
11064;SDS011;5585;52.530;7.320;2024-01-25T07:27:10;20.00;;;3.63;;
11064;SDS011;5585;52.530;7.320;2024-01-25T07:29:36;16.57;;;3.80;;
11064;SDS011;5585;52.530;7.320;2024-01-25T07:32:04;12.90;;;3.37;;
11064;SDS011;5585;52.530;7.320;2024-01-25T07:34:31;21.20;;;4.53;;
11064;SDS011;5585;52.530;7.320;2024-01-25T07:36:57;13.77;;;3.53;;
11064;SDS011;5585;52.530;7.320;2024-01-25T07:39:24;16.33;;;4.80;;
11064;SDS011;5585;52.530;7.320;2024-01-25T07:41:50;17.37;;;4.20;;
11064;SDS011;5585;52.530;7.320;2024-01-25T07:44:17;13.00;;;3.67;;
11064;SDS011;5585;52.530;7.320;2024-01-25T07:46:44;17.77;;;3.63;;
11064;SDS011;5585;52.530;7.320;2024-01-25T07:49:12;15.47;;;3.97;;
11064;SDS011;5585;52.530;7.320;2024-01-25T07:51:39;15.80;;;4.07;;
11064;SDS011;5585;52.530;7.320;2024-01-25T07:54:05;16.93;;;4.07;;
11064;SDS011;5585;52.530;7.320;2024-01-25T07:56:32;14.37;;;3.67;;
11064;SDS011;5585;52.530;7.320;2024-01-25T07:58:58;18.57;;;3.60;;
11064;SDS011;5585;52.530;7.320;2024-01-25T08:01:25;14.53;;;4.00;;
11064;SDS011;5585;52.530;7.320;2024-01-25T08:03:51;13.10;;;3.60;;
11064;SDS011;5585;52.530;7.320;2024-01-25T08:06:19;13.17;;;3.87;;
11064;SDS011;5585;52.530;7.320;2024-01-25T08:08:45;12.33;;;3.47;;
11064;SDS011;5585;52.530;7.320;2024-01-25T08:11:12;16.37;;;4.27;;
11064;SDS011;5585;52.530;7.320;2024-01-25T08:13:38;21.63;;;4.47;;
11064;SDS011;5585;52.530;7.320;2024-01-25T08:16:08;12.13;;;3.73;;
11064;SDS011;5585;52.530;7.320;2024-01-25T08:18:35;19.27;;;4.80;;
11064;SDS011;5585;52.530;7.320;2024-01-25T08:21:02;18.97;;;4.57;;
11064;SDS011;5585;52.530;7.320;2024-01-25T08:23:29;14.57;;;3.60;;
11064;SDS011;5585;52.530;7.320;2024-01-25T08:25:56;15.23;;;3.80;;
11064;SDS011;5585;52.530;7.320;2024-01-25T08:28:22;19.17;;;4.53;;
11064;SDS011;5585;52.530;7.320;2024-01-25T08:30:49;19.03;;;4.30;;
11064;SDS011;5585;52.530;7.320;2024-01-25T08:33:15;14.20;;;4.27;;
11064;SDS011;5585;52.530;7.320;2024-01-25T08:35:42;17.03;;;4.47;;
11064;SDS011;5585;52.530;7.320;2024-01-25T08:38:08;15.97;;;4.33;;
11064;SDS011;5585;52.530;7.320;2024-01-25T08:40:36;18.67;;;4.47;;
11064;SDS011;5585;52.530;7.320;2024-01-25T08:43:02;22.83;;;5.60;;
11064;SDS011;5585;52.530;7.320;2024-01-25T08:45:29;18.50;;;5.00;;
11064;SDS011;5585;52.530;7.320;2024-01-25T08:47:56;13.50;;;3.97;;
11064;SDS011;5585;52.530;7.320;2024-01-25T08:50:22;16.23;;;4.50;;
11064;SDS011;5585;52.530;7.320;2024-01-25T08:52:49;17.80;;;4.90;;
11064;SDS011;5585;52.530;7.320;2024-01-25T08:55:15;17.70;;;4.10;;
11064;SDS011;5585;52.530;7.320;2024-01-25T08:57:43;23.43;;;4.80;;
11064;SDS011;5585;52.530;7.320;2024-01-25T09:00:10;17.13;;;5.20;;
11064;SDS011;5585;52.530;7.320;2024-01-25T09:02:36;17.10;;;4.40;;
11064;SDS011;5585;52.530;7.320;2024-01-25T09:05:03;24.17;;;4.70;;
11064;SDS011;5585;52.530;7.320;2024-01-25T09:07:30;17.53;;;4.47;;
11064;SDS011;5585;52.530;7.320;2024-01-25T09:09:56;15.57;;;4.30;;
11064;SDS011;5585;52.530;7.320;2024-01-25T09:12:23;19.67;;;4.20;;
11064;SDS011;5585;52.530;7.320;2024-01-25T09:14:50;16.53;;;4.53;;
11064;SDS011;5585;52.530;7.320;2024-01-25T09:17:17;16.87;;;4.37;;
11064;SDS011;5585;52.530;7.320;2024-01-25T09:19:47;20.83;;;4.80;;
11064;SDS011;5585;52.530;7.320;2024-01-25T09:22:13;20.00;;;4.77;;
11064;SDS011;5585;52.530;7.320;2024-01-25T09:24:41;23.63;;;4.83;;
11064;SDS011;5585;52.530;7.320;2024-01-25T09:27:08;15.93;;;4.53;;
11064;SDS011;5585;52.530;7.320;2024-01-25T09:29:34;18.20;;;4.80;;
11064;SDS011;5585;52.530;7.320;2024-01-25T09:32:05;19.13;;;4.57;;
11064;SDS011;5585;52.530;7.320;2024-01-25T09:34:31;17.60;;;3.83;;
11064;SDS011;5585;52.530;7.320;2024-01-25T09:36:58;14.03;;;3.97;;
11064;SDS011;5585;52.530;7.320;2024-01-25T09:39:24;20.13;;;5.10;;
11064;SDS011;5585;52.530;7.320;2024-01-25T09:41:51;16.50;;;4.10;;
11064;SDS011;5585;52.530;7.320;2024-01-25T09:44:17;19.30;;;5.00;;
11064;SDS011;5585;52.530;7.320;2024-01-25T09:46:44;21.83;;;4.30;;
11064;SDS011;5585;52.530;7.320;2024-01-25T09:49:12;17.70;;;4.57;;
11064;SDS011;5585;52.530;7.320;2024-01-25T09:51:39;18.97;;;4.23;;
11064;SDS011;5585;52.530;7.320;2024-01-25T09:54:06;16.73;;;4.60;;
11064;SDS011;5585;52.530;7.320;2024-01-25T09:56:33;25.43;;;6.37;;
11064;SDS011;5585;52.530;7.320;2024-01-25T09:59:00;20.77;;;4.93;;
11064;SDS011;5585;52.530;7.320;2024-01-25T10:01:27;21.23;;;5.60;;
11064;SDS011;5585;52.530;7.320;2024-01-25T10:03:53;19.67;;;4.47;;
11064;SDS011;5585;52.530;7.320;2024-01-25T10:06:22;12.10;;;4.07;;
11064;SDS011;5585;52.530;7.320;2024-01-25T10:08:49;17.77;;;4.83;;
11064;SDS011;5585;52.530;7.320;2024-01-25T10:11:16;20.80;;;5.70;;
11064;SDS011;5585;52.530;7.320;2024-01-25T10:13:43;16.43;;;4.77;;
11064;SDS011;5585;52.530;7.320;2024-01-25T10:16:10;18.40;;;4.40;;
11064;SDS011;5585;52.530;7.320;2024-01-25T10:18:37;20.37;;;5.60;;
11064;SDS011;5585;52.530;7.320;2024-01-25T10:21:04;17.83;;;5.37;;
11064;SDS011;5585;52.530;7.320;2024-01-25T10:23:32;20.27;;;4.93;;
11064;SDS011;5585;52.530;7.320;2024-01-25T10:25:59;14.47;;;4.87;;
11064;SDS011;5585;52.530;7.320;2024-01-25T10:28:25;19.73;;;4.73;;
11064;SDS011;5585;52.530;7.320;2024-01-25T10:30:55;20.13;;;4.97;;
11064;SDS011;5585;52.530;7.320;2024-01-25T10:33:21;18.70;;;5.40;;
11064;SDS011;5585;52.530;7.320;2024-01-25T10:35:48;17.93;;;4.40;;
11064;SDS011;5585;52.530;7.320;2024-01-25T10:38:16;17.73;;;4.37;;
11064;SDS011;5585;52.530;7.320;2024-01-25T10:40:44;15.63;;;4.10;;
11064;SDS011;5585;52.530;7.320;2024-01-25T10:43:12;18.37;;;4.67;;
11064;SDS011;5585;52.530;7.320;2024-01-25T10:45:38;13.37;;;4.30;;
11064;SDS011;5585;52.530;7.320;2024-01-25T10:48:06;26.17;;;6.07;;
11064;SDS011;5585;52.530;7.320;2024-01-25T10:50:33;17.80;;;5.00;;
11064;SDS011;5585;52.530;7.320;2024-01-25T10:52:59;16.13;;;4.30;;
11064;SDS011;5585;52.530;7.320;2024-01-25T10:55:27;18.33;;;5.30;;
11064;SDS011;5585;52.530;7.320;2024-01-25T10:57:55;16.23;;;4.97;;
11064;SDS011;5585;52.530;7.320;2024-01-25T11:00:21;15.00;;;4.60;;
11064;SDS011;5585;52.530;7.320;2024-01-25T11:02:48;17.43;;;4.33;;
11064;SDS011;5585;52.530;7.320;2024-01-25T11:05:16;14.93;;;4.37;;
11064;SDS011;5585;52.530;7.320;2024-01-25T11:07:44;14.50;;;5.27;;
11064;SDS011;5585;52.530;7.320;2024-01-25T11:10:12;25.43;;;5.63;;
11064;SDS011;5585;52.530;7.320;2024-01-25T11:12:46;19.97;;;4.63;;
11064;SDS011;5585;52.530;7.320;2024-01-25T11:15:18;16.70;;;4.77;;
11064;SDS011;5585;52.530;7.320;2024-01-25T11:17:50;16.60;;;4.50;;
11064;SDS011;5585;52.530;7.320;2024-01-25T11:20:19;15.63;;;4.80;;
11064;SDS011;5585;52.530;7.320;2024-01-25T11:22:45;17.40;;;5.20;;
11064;SDS011;5585;52.530;7.320;2024-01-25T11:25:12;15.90;;;4.83;;
11064;SDS011;5585;52.530;7.320;2024-01-25T11:27:42;16.20;;;5.03;;
11064;SDS011;5585;52.530;7.320;2024-01-25T11:30:09;18.23;;;5.03;;
11064;SDS011;5585;52.530;7.320;2024-01-25T11:32:38;15.10;;;3.87;;
11064;SDS011;5585;52.530;7.320;2024-01-25T11:35:04;17.53;;;5.40;;
11064;SDS011;5585;52.530;7.320;2024-01-25T11:37:33;18.63;;;4.70;;
11064;SDS011;5585;52.530;7.320;2024-01-25T11:39:59;17.93;;;5.20;;
11064;SDS011;5585;52.530;7.320;2024-01-25T11:42:26;17.87;;;4.93;;
11064;SDS011;5585;52.530;7.320;2024-01-25T11:44:55;15.73;;;4.87;;
11064;SDS011;5585;52.530;7.320;2024-01-25T11:47:22;17.40;;;4.53;;
11064;SDS011;5585;52.530;7.320;2024-01-25T11:49:50;19.93;;;5.93;;
11064;SDS011;5585;52.530;7.320;2024-01-25T11:52:16;14.47;;;4.20;;
11064;SDS011;5585;52.530;7.320;2024-01-25T11:54:43;15.17;;;4.20;;
11064;SDS011;5585;52.530;7.320;2024-01-25T11:57:09;15.50;;;4.80;;
11064;SDS011;5585;52.530;7.320;2024-01-25T11:59:36;14.70;;;4.50;;
11064;SDS011;5585;52.530;7.320;2024-01-25T12:02:02;19.90;;;5.03;;
11064;SDS011;5585;52.530;7.320;2024-01-25T12:04:29;17.20;;;4.73;;
11064;SDS011;5585;52.530;7.320;2024-01-25T12:06:57;17.00;;;5.30;;
11064;SDS011;5585;52.530;7.320;2024-01-25T12:09:23;20.07;;;5.73;;
11064;SDS011;5585;52.530;7.320;2024-01-25T12:11:50;20.80;;;5.57;;
11064;SDS011;5585;52.530;7.320;2024-01-25T12:14:17;22.17;;;5.10;;
11064;SDS011;5585;52.530;7.320;2024-01-25T12:16:43;19.93;;;5.27;;
11064;SDS011;5585;52.530;7.320;2024-01-25T12:19:10;14.40;;;4.43;;
11064;SDS011;5585;52.530;7.320;2024-01-25T12:21:36;16.93;;;4.83;;
11064;SDS011;5585;52.530;7.320;2024-01-25T12:24:05;22.87;;;5.67;;
11064;SDS011;5585;52.530;7.320;2024-01-25T12:26:33;17.33;;;5.07;;
11064;SDS011;5585;52.530;7.320;2024-01-25T12:29:00;16.97;;;4.77;;
11064;SDS011;5585;52.530;7.320;2024-01-25T12:31:26;12.40;;;4.23;;
11064;SDS011;5585;52.530;7.320;2024-01-25T12:33:52;13.57;;;4.30;;
11064;SDS011;5585;52.530;7.320;2024-01-25T12:36:19;19.17;;;5.67;;
11064;SDS011;5585;52.530;7.320;2024-01-25T12:38:45;14.10;;;4.90;;
11064;SDS011;5585;52.530;7.320;2024-01-25T12:41:15;16.87;;;4.57;;
11064;SDS011;5585;52.530;7.320;2024-01-25T12:43:41;15.13;;;4.43;;
11064;SDS011;5585;52.530;7.320;2024-01-25T12:46:08;19.40;;;4.70;;
11064;SDS011;5585;52.530;7.320;2024-01-25T12:48:34;14.37;;;4.67;;
11064;SDS011;5585;52.530;7.320;2024-01-25T12:51:01;12.53;;;4.03;;
11064;SDS011;5585;52.530;7.320;2024-01-25T12:53:27;19.23;;;4.93;;
11064;SDS011;5585;52.530;7.320;2024-01-25T12:55:54;11.87;;;3.60;;
11064;SDS011;5585;52.530;7.320;2024-01-25T12:58:22;18.37;;;5.10;;
11064;SDS011;5585;52.530;7.320;2024-01-25T13:00:48;18.20;;;4.83;;
11064;SDS011;5585;52.530;7.320;2024-01-25T13:03:15;20.73;;;5.40;;
11064;SDS011;5585;52.530;7.320;2024-01-25T13:05:41;16.13;;;4.80;;
11064;SDS011;5585;52.530;7.320;2024-01-25T13:08:08;12.13;;;3.97;;
11064;SDS011;5585;52.530;7.320;2024-01-25T13:10:34;15.13;;;4.80;;
11064;SDS011;5585;52.530;7.320;2024-01-25T13:13:01;11.93;;;4.17;;
11064;SDS011;5585;52.530;7.320;2024-01-25T13:15:29;20.70;;;5.10;;
11064;SDS011;5585;52.530;7.320;2024-01-25T13:17:56;14.83;;;4.60;;
11064;SDS011;5585;52.530;7.320;2024-01-25T13:20:22;16.80;;;4.53;;
11064;SDS011;5585;52.530;7.320;2024-01-25T13:22:48;14.57;;;4.43;;
11064;SDS011;5585;52.530;7.320;2024-01-25T13:25:15;17.40;;;4.03;;
11064;SDS011;5585;52.530;7.320;2024-01-25T13:27:45;14.57;;;3.83;;
11064;SDS011;5585;52.530;7.320;2024-01-25T13:30:12;11.37;;;3.47;;
11064;SDS011;5585;52.530;7.320;2024-01-25T13:32:40;15.13;;;3.90;;
11064;SDS011;5585;52.530;7.320;2024-01-25T13:35:07;11.33;;;3.87;;
11064;SDS011;5585;52.530;7.320;2024-01-25T13:37:33;14.73;;;4.27;;
11064;SDS011;5585;52.530;7.320;2024-01-25T13:40:00;16.80;;;4.20;;
11064;SDS011;5585;52.530;7.320;2024-01-25T13:42:26;12.53;;;3.70;;
11064;SDS011;5585;52.530;7.320;2024-01-25T13:44:53;15.97;;;4.03;;
11064;SDS011;5585;52.530;7.320;2024-01-25T13:47:19;12.70;;;3.83;;
11064;SDS011;5585;52.530;7.320;2024-01-25T13:49:47;12.67;;;3.90;;
11064;SDS011;5585;52.530;7.320;2024-01-25T13:52:16;13.37;;;4.13;;
11064;SDS011;5585;52.530;7.320;2024-01-25T13:54:43;15.43;;;3.83;;
11064;SDS011;5585;52.530;7.320;2024-01-25T13:57:09;19.43;;;4.33;;
11064;SDS011;5585;52.530;7.320;2024-01-25T13:59:36;12.77;;;3.43;;
11064;SDS011;5585;52.530;7.320;2024-01-25T14:02:02;13.43;;;3.50;;
11064;SDS011;5585;52.530;7.320;2024-01-25T14:04:29;15.83;;;4.03;;
11064;SDS011;5585;52.530;7.320;2024-01-25T14:06:57;13.60;;;4.03;;
11064;SDS011;5585;52.530;7.320;2024-01-25T14:09:23;12.80;;;3.47;;
11064;SDS011;5585;52.530;7.320;2024-01-25T14:11:50;11.93;;;3.53;;
11064;SDS011;5585;52.530;7.320;2024-01-25T14:14:16;9.60;;;3.00;;
11064;SDS011;5585;52.530;7.320;2024-01-25T14:16:43;16.00;;;4.50;;
11064;SDS011;5585;52.530;7.320;2024-01-25T14:19:09;16.00;;;4.07;;
11064;SDS011;5585;52.530;7.320;2024-01-25T14:21:36;17.73;;;6.47;;
11064;SDS011;5585;52.530;7.320;2024-01-25T14:24:03;30.20;;;17.20;;
11064;SDS011;5585;52.530;7.320;2024-01-25T14:26:30;27.43;;;15.00;;
11064;SDS011;5585;52.530;7.320;2024-01-25T14:28:57;18.60;;;7.80;;
11064;SDS011;5585;52.530;7.320;2024-01-25T14:31:23;19.73;;;5.80;;
11064;SDS011;5585;52.530;7.320;2024-01-25T14:33:49;16.30;;;5.27;;
11064;SDS011;5585;52.530;7.320;2024-01-25T14:36:16;17.20;;;5.17;;
11064;SDS011;5585;52.530;7.320;2024-01-25T14:38:42;21.07;;;5.50;;
11064;SDS011;5585;52.530;7.320;2024-01-25T14:41:10;15.23;;;4.97;;
11064;SDS011;5585;52.530;7.320;2024-01-25T14:43:37;17.73;;;5.00;;
11064;SDS011;5585;52.530;7.320;2024-01-25T14:46:04;15.90;;;4.77;;